Time;durP1;ratioP1;P1;durP2;ratioP2;P2;SDS_P1;SDS_P2;PMS_P1;PMS_P2;Temp;Humidity;BMP_temperature;BMP_pressure;BME280_temperature;BME280_humidity;BME280_pressure;Samples;Min_cycle;Max_cycle;Signal;HPM_P1;HPM_P2
2023/05/06 04:23:27;;;;;;;9.45;4.95;;;15.20;99.90;;;;;;7098711;23;20122;-74
2023/05/06 04:26:30;;;;;;;7.68;4.82;;;15.30;99.90;;;;;;6125214;29;20051;-74
2023/05/06 04:29:32;;;;;;;8.67;4.73;;;15.20;99.90;;;;;;6118037;29;20090;-74
2023/05/06 04:32:33;;;;;;;6.38;4.47;;;15.20;99.90;;;;;;6128785;29;20447;-74
2023/05/06 04:35:35;;;;;;;7.60;5.03;;;15.10;99.90;;;;;;6115882;29;20055;-77
2023/05/06 04:38:38;;;;;;;7.13;5.05;;;15.20;99.90;;;;;;6128073;29;20046;-75
2023/05/06 04:41:40;;;;;;;9.13;4.90;;;15.20;99.90;;;;;;6127214;29;20397;-76
2023/05/06 04:44:43;;;;;;;6.60;4.40;;;15.10;99.90;;;;;;6128870;29;20058;-76
2023/05/06 04:47:45;;;;;;;7.13;4.20;;;15.10;99.90;;;;;;6129101;29;20056;-74
2023/05/06 04:50:47;;;;;;;8.60;5.82;;;15.20;99.90;;;;;;6126570;29;20413;-76
2023/05/06 04:53:51;;;;;;;6.78;4.85;;;15.20;99.90;;;;;;6125872;29;20050;-76
2023/05/06 04:56:54;;;;;;;6.80;4.25;;;15.20;99.90;;;;;;6126520;29;20465;-77
2023/05/06 04:59:56;;;;;;;7.60;4.60;;;15.10;99.90;;;;;;6129442;29;20481;-77
2023/05/06 05:02:58;;;;;;;7.82;4.20;;;15.20;99.90;;;;;;6136375;29;20043;-76
2023/05/06 05:06:00;;;;;;;8.85;4.97;;;15.10;99.90;;;;;;6133739;29;20046;-78
2023/05/06 05:09:03;;;;;;;7.78;4.40;;;15.10;99.90;;;;;;6126178;29;20047;-75
2023/05/06 05:12:06;;;;;;;7.20;5.25;;;15.10;99.90;;;;;;6128387;29;20529;-77
2023/05/06 05:15:09;;;;;;;8.07;5.30;;;15.20;99.90;;;;;;6127268;29;20044;-75
2023/05/06 05:18:11;;;;;;;10.05;6.15;;;15.20;99.90;;;;;;6128638;29;20052;-76
2023/05/06 05:21:13;;;;;;;9.52;5.97;;;15.10;99.90;;;;;;6128511;29;20048;-74
2023/05/06 05:24:16;;;;;;;10.88;6.68;;;15.10;99.90;;;;;;6125413;29;20063;-75
2023/05/06 05:27:19;;;;;;;8.50;5.90;;;15.10;99.90;;;;;;6130390;29;20401;-75
2023/05/06 05:30:21;;;;;;;10.70;5.37;;;15.00;99.90;;;;;;6129836;29;20058;-75
2023/05/06 05:33:23;;;;;;;15.32;6.18;;;15.10;99.90;;;;;;6127526;29;20056;-73
2023/05/06 05:36:26;;;;;;;9.30;5.47;;;15.00;99.90;;;;;;6127167;29;20107;-77
2023/05/06 05:39:29;;;;;;;10.57;5.47;;;15.00;99.90;;;;;;6132628;29;20085;-75
2023/05/06 05:42:32;;;;;;;9.25;5.43;;;15.10;99.90;;;;;;6129357;29;20067;-75
2023/05/06 05:45:34;;;;;;;7.25;4.97;;;15.10;99.90;;;;;;6134929;29;20043;-76
2023/05/06 05:48:38;;;;;;;7.90;4.90;;;15.10;99.90;;;;;;6120924;29;20043;-75
2023/05/06 05:51:40;;;;;;;7.75;5.07;;;15.10;99.90;;;;;;6135080;29;20131;-77
2023/05/06 05:54:43;;;;;;;7.88;5.28;;;15.10;99.90;;;;;;6131078;29;20066;-75
2023/05/06 05:57:45;;;;;;;7.78;4.88;;;15.10;99.90;;;;;;6125506;29;20486;-74
2023/05/06 06:00:47;;;;;;;11.18;5.13;;;15.20;99.90;;;;;;6127667;29;20054;-75
2023/05/06 06:03:49;;;;;;;8.55;4.90;;;15.30;99.90;;;;;;6125653;29;20051;-73
2023/05/06 06:06:51;;;;;;;6.30;4.80;;;15.30;99.90;;;;;;6110236;29;20494;-76
2023/05/06 06:09:54;;;;;;;6.97;4.63;;;15.40;99.90;;;;;;6125700;29;20051;-76
2023/05/06 06:12:56;;;;;;;10.00;4.85;;;15.50;99.90;;;;;;6125369;29;20040;-73
2023/05/06 06:15:58;;;;;;;8.52;4.75;;;15.50;99.90;;;;;;6124992;29;20039;-76
2023/05/06 06:19:00;;;;;;;9.00;5.35;;;15.60;99.90;;;;;;6114835;29;20054;-76
2023/05/06 06:22:02;;;;;;;7.90;5.00;;;15.50;99.90;;;;;;6118417;29;20055;-76
2023/05/06 06:25:07;;;;;;;8.20;5.43;;;15.60;99.90;;;;;;6107650;29;20052;-76
2023/05/06 06:28:09;;;;;;;6.32;4.97;;;15.50;99.90;;;;;;6114581;29;20511;-74
2023/05/06 06:31:10;;;;;;;7.13;5.55;;;15.50;99.90;;;;;;6131890;29;20058;-75
2023/05/06 06:34:12;;;;;;;8.65;5.53;;;15.40;99.90;;;;;;6131993;29;20044;-74
2023/05/06 06:37:14;;;;;;;7.70;5.32;;;15.40;99.90;;;;;;6125560;29;20088;-74
2023/05/06 06:40:17;;;;;;;9.60;6.28;;;15.60;99.90;;;;;;6124431;29;20051;-76
2023/05/06 06:43:19;;;;;;;7.70;5.68;;;15.60;99.90;;;;;;6130972;29;20063;-75
2023/05/06 06:46:21;;;;;;;8.60;6.13;;;15.70;99.90;;;;;;6131051;29;20055;-77
2023/05/06 06:49:23;;;;;;;8.50;5.72;;;15.80;99.90;;;;;;6131044;29;20412;-74
2023/05/06 06:52:25;;;;;;;10.05;6.30;;;15.80;99.90;;;;;;6130384;29;20092;-77
2023/05/06 06:55:28;;;;;;;8.50;6.22;;;15.90;99.90;;;;;;6123265;29;20512;-76
2023/05/06 06:58:32;;;;;;;8.73;6.22;;;15.80;99.90;;;;;;6130073;29;20048;-76
2023/05/06 07:01:34;;;;;;;9.38;6.88;;;15.90;99.90;;;;;;6129667;29;20052;-75
2023/05/06 07:04:36;;;;;;;8.70;6.57;;;15.80;99.90;;;;;;6128184;29;20143;-75
2023/05/06 07:07:38;;;;;;;7.53;6.03;;;15.80;99.90;;;;;;6130679;29;20054;-75
2023/05/06 07:10:41;;;;;;;7.00;5.70;;;15.80;99.90;;;;;;6130940;29;20496;-76
2023/05/06 07:13:43;;;;;;;8.10;5.47;;;15.90;99.90;;;;;;6128992;29;20071;-76
2023/05/06 07:16:45;;;;;;;8.68;6.05;;;15.90;99.90;;;;;;6130001;29;20397;-76
2023/05/06 07:19:47;;;;;;;9.60;6.60;;;16.00;99.90;;;;;;6119089;29;20048;-76
2023/05/06 07:22:48;;;;;;;8.18;6.22;;;16.00;99.90;;;;;;6120807;29;20410;-76
2023/05/06 07:25:52;;;;;;;7.35;5.20;;;16.10;99.90;;;;;;6130762;29;20067;-77
2023/05/06 07:28:53;;;;;;;8.75;4.90;;;16.10;99.90;;;;;;6130921;29;20067;-76
2023/05/06 07:31:55;;;;;;;6.88;5.25;;;16.20;99.90;;;;;;6128286;29;20047;-75
2023/05/06 07:34:57;;;;;;;6.88;4.60;;;16.30;99.90;;;;;;6120991;29;20062;-76
2023/05/06 07:37:59;;;;;;;7.38;4.50;;;16.30;99.90;;;;;;6129652;29;20410;-78
2023/05/06 07:41:02;;;;;;;6.63;3.40;;;16.40;99.90;;;;;;6130439;29;20417;-76
2023/05/06 07:44:05;;;;;;;6.40;3.42;;;16.50;99.90;;;;;;6128487;29;20445;-76
2023/05/06 07:47:07;;;;;;;5.30;3.55;;;16.70;99.90;;;;;;6129456;29;20102;-75
2023/05/06 07:50:10;;;;;;;5.30;3.17;;;16.80;99.90;;;;;;6120756;29;20048;-75
2023/05/06 07:53:12;;;;;;;6.03;3.30;;;16.90;99.90;;;;;;6109182;29;20063;-76
2023/05/06 07:56:15;;;;;;;7.78;4.03;;;17.00;99.90;;;;;;6117033;29;20517;-75
2023/05/06 07:59:17;;;;;;;7.40;3.42;;;17.10;99.90;;;;;;6129802;29;20062;-74
2023/05/06 08:02:19;;;;;;;5.47;3.40;;;17.20;99.90;;;;;;6129733;29;20052;-77
2023/05/06 08:05:21;;;;;;;6.45;3.03;;;17.30;99.90;;;;;;6130903;29;20059;-76
2023/05/06 08:08:26;;;;;;;4.97;2.92;;;17.30;99.90;;;;;;6132017;29;20070;-75
2023/05/06 08:11:29;;;;;;;5.38;2.33;;;17.30;99.90;;;;;;6129139;29;20175;-76
2023/05/06 08:14:31;;;;;;;4.75;2.50;;;17.40;99.90;;;;;;6133179;29;20052;-77
2023/05/06 08:17:33;;;;;;;5.38;2.58;;;17.30;99.90;;;;;;6120279;29;20055;-76
2023/05/06 08:20:35;;;;;;;4.70;2.58;;;17.40;99.90;;;;;;6125374;29;20040;-78
2023/05/06 08:23:37;;;;;;;5.30;2.45;;;17.40;99.90;;;;;;6121434;29;20059;-76
2023/05/06 08:26:40;;;;;;;5.30;2.78;;;17.50;99.90;;;;;;6128867;29;20051;-75
2023/05/06 08:29:42;;;;;;;5.20;2.63;;;17.60;99.90;;;;;;6123930;29;20051;-77
2023/05/06 08:32:44;;;;;;;5.00;2.80;;;17.60;99.90;;;;;;6129323;29;20055;-76
2023/05/06 08:35:46;;;;;;;4.25;2.22;;;17.60;99.90;;;;;;6131221;29;20091;-75
2023/05/06 08:38:49;;;;;;;5.95;3.50;;;17.70;99.90;;;;;;6130243;29;20385;-76
2023/05/06 08:41:54;;;;;;;7.45;3.45;;;17.40;99.90;;;;;;6129791;29;20067;-75
2023/05/06 08:44:58;;;;;;;5.10;2.47;;;17.70;99.90;;;;;;6129557;29;20055;-77
2023/05/06 08:48:00;;;;;;;;;;;17.80;99.90;;;;;;6129672;29;20048;-77
2023/05/06 08:51:03;;;;;;;6.30;2.40;;;17.80;99.90;;;;;;6128756;29;19927;-76
2023/05/06 08:54:07;;;;;;;12.68;7.22;;;17.90;99.90;;;;;;6129086;29;20056;-75
2023/05/06 08:57:12;;;;;;;6.82;3.83;;;17.80;99.90;;;;;;6129305;29;20055;-75
2023/05/06 09:00:16;;;;;;;4.60;2.50;;;17.90;99.90;;;;;;6132296;28;20050;-75
2023/05/06 09:03:18;;;;;;;5.45;2.00;;;18.00;99.90;;;;;;6131522;29;20047;-76
2023/05/06 09:06:20;;;;;;;3.53;1.73;;;18.00;99.90;;;;;;6130986;29;20131;-76
2023/05/06 09:09:21;;;;;;;3.33;1.80;;;18.10;99.90;;;;;;6129615;29;20051;-75
2023/05/06 09:12:25;;;;;;;3.38;1.80;;;18.20;99.90;;;;;;6129051;29;20063;-78
2023/05/06 09:15:27;;;;;;;;;;;18.40;99.90;;;;;;6128866;29;20047;-78
2023/05/06 09:18:29;;;;;;;5.85;1.90;;;18.30;99.60;;;;;;6128461;29;20388;-77
2023/05/06 09:21:33;;;;;;;5.03;2.55;;;18.30;99.90;;;;;;6128374;29;20047;-76
2023/05/06 09:24:36;;;;;;;4.45;2.10;;;18.30;99.90;;;;;;6128386;29;20066;-77
2023/05/06 09:27:40;;;;;;;3.78;1.80;;;18.30;99.90;;;;;;6128916;29;20152;-75
2023/05/06 09:30:44;;;;;;;4.38;2.10;;;18.50;99.90;;;;;;6128669;29;20505;-76
2023/05/06 09:33:46;;;;;;;3.10;1.50;;;18.80;99.90;;;;;;6129958;29;20047;-76
2023/05/06 09:36:48;;;;;;;3.45;1.73;;;18.90;99.80;;;;;;6113554;29;20052;-79
2023/05/06 09:39:53;;;;;;;3.30;1.55;;;18.80;98.80;;;;;;6104770;29;20055;-77
2023/05/06 09:42:57;;;;;;;3.50;1.80;;;18.70;99.70;;;;;;6104680;29;20052;-76
2023/05/06 09:46:00;;;;;;;4.05;1.70;;;18.90;98.70;;;;;;6104874;29;20044;-76
2023/05/06 09:49:02;;;;;;;3.60;1.90;;;18.90;99.00;;;;;;6104397;29;20056;-75
2023/05/06 09:52:06;;;;;;;4.60;1.80;;;18.80;99.50;;;;;;6104518;29;20091;-75
2023/05/06 09:55:10;;;;;;;3.47;1.80;;;19.10;99.60;;;;;;6104499;29;20070;-76
2023/05/06 09:58:14;;;;;;;4.25;1.65;;;19.10;99.80;;;;;;6104596;29;20462;-75
2023/05/06 10:01:17;;;;;;;3.15;1.63;;;19.30;98.00;;;;;;6104582;29;20059;-76
2023/05/06 10:04:22;;;;;;;5.05;1.88;;;19.40;98.10;;;;;;6104654;29;20167;-76
2023/05/06 10:07:27;;;;;;;3.53;1.80;;;19.40;98.30;;;;;;6108236;29;20052;-75
2023/05/06 10:10:30;;;;;;;5.13;1.80;;;19.50;98.50;;;;;;6109060;29;20054;-75
2023/05/06 10:13:33;;;;;;;3.37;1.60;;;19.20;98.20;;;;;;6107929;29;20056;-77
2023/05/06 10:16:38;;;;;;;3.72;1.48;;;19.40;97.80;;;;;;6108251;29;20490;-77
2023/05/06 10:19:44;;;;;;;4.72;1.70;;;19.50;97.00;;;;;;6106021;29;20051;-74
2023/05/06 10:22:58;;;;;;;4.50;1.77;;;19.40;98.30;;;;;;6106086;29;20048;-76
2023/05/06 10:26:07;;;;;;;3.85;1.60;;;19.30;97.10;;;;;;6105170;29;20402;-76
2023/05/06 10:29:11;;;;;;;5.55;1.60;;;19.50;96.10;;;;;;6104912;29;20084;-77
2023/05/06 10:32:13;;;;;;;3.80;1.70;;;19.40;96.90;;;;;;6105997;29;20052;-76
2023/05/06 10:35:25;;;;;;;3.80;1.40;;;19.40;96.60;;;;;;6105273;29;20044;-77
2023/05/06 10:38:32;;;;;;;4.18;1.40;;;19.60;95.50;;;;;;6106185;29;20138;-77
2023/05/06 10:41:36;;;;;;;3.42;1.58;;;19.90;94.00;;;;;;6105868;29;20056;-74
2023/05/06 10:44:59;;;;;;;5.15;1.50;;;19.90;93.40;;;;;;6104083;29;20067;-78
2023/05/06 10:48:11;;;;;;;2.63;1.48;;;20.00;93.90;;;;;;6103915;29;20049;-76
2023/05/06 10:51:26;;;;;;;5.80;1.47;;;19.90;93.80;;;;;;6103816;29;20406;-77
2023/05/06 10:54:27;;;;;;;2.72;1.27;;;19.90;95.30;;;;;;6103723;29;20059;-76
2023/05/06 10:57:40;;;;;;;4.00;1.65;;;19.90;94.80;;;;;;6103467;29;20052;-77
2023/05/06 11:00:54;;;;;;;2.58;1.30;;;19.70;94.60;;;;;;6103532;29;20403;-77
2023/05/06 11:03:57;;;;;;;2.70;1.30;;;19.80;94.80;;;;;;6103406;29;20059;-76
2023/05/06 11:07:09;;;;;;;4.93;1.50;;;20.20;93.50;;;;;;6103718;29;20052;-79
2023/05/06 11:10:11;;;;;;;3.70;1.40;;;20.30;92.90;;;;;;6103394;29;20118;-75
2023/05/06 11:13:23;;;;;;;3.78;1.35;;;20.20;93.60;;;;;;6103571;29;20063;-76
2023/05/06 11:16:48;;;;;;;4.25;1.40;;;20.20;94.20;;;;;;6107321;29;20123;-75
2023/05/06 11:20:20;;;;;;;4.72;1.50;;;20.10;92.40;;;;;;6109220;29;20051;-77
2023/05/06 11:23:21;;;;;;;3.50;1.10;;;20.40;92.00;;;;;;6127572;29;20418;-76
2023/05/06 11:26:24;;;;;;;5.65;1.38;;;20.50;92.20;;;;;;6130193;29;20051;-78
2023/05/06 11:29:27;;;;;;;3.97;1.50;;;20.40;93.40;;;;;;6130390;29;20052;-79
2023/05/06 11:32:30;;;;;;;2.80;1.20;;;20.50;92.10;;;;;;6129091;29;20059;-75
2023/05/06 11:35:35;;;;;;;3.08;1.10;;;20.70;92.20;;;;;;6125052;29;20055;-76
2023/05/06 11:38:42;;;;;;;2.25;1.08;;;20.90;91.30;;;;;;6112714;29;20059;-74
2023/05/06 11:41:44;;;;;;;5.30;2.20;;;21.00;90.50;;;;;;6119246;29;20052;-74
2023/05/06 11:44:46;;;;;;;4.53;1.83;;;20.80;91.50;;;;;;6128011;29;20055;-73
2023/05/06 11:47:49;;;;;;;3.55;1.20;;;20.90;90.30;;;;;;6128100;29;20521;-76
2023/05/06 11:50:51;;;;;;;2.90;1.10;;;20.70;90.60;;;;;;6116983;29;20043;-74
2023/05/06 11:54:03;;;;;;;3.40;1.00;;;20.70;90.80;;;;;;6128262;29;20062;-75
2023/05/06 11:57:05;;;;;;;2.92;1.20;;;21.10;90.40;;;;;;6127004;29;20050;-75
2023/05/06 12:00:09;;;;;;;2.88;1.20;;;21.20;86.20;;;;;;6125947;29;20055;-74
2023/05/06 12:03:15;;;;;;;3.30;0.93;;;21.30;90.10;;;;;;6123625;29;20058;-73
2023/05/06 12:06:18;;;;;;;2.20;0.93;;;21.40;89.50;;;;;;6104336;29;20059;-75
2023/05/06 12:09:22;;;;;;;3.78;1.25;;;21.40;89.00;;;;;;6103903;29;20053;-77
2023/05/06 12:12:24;;;;;;;;;;;21.50;87.40;;;;;;6127944;29;20055;-78
2023/05/06 12:15:26;;;;;;;3.03;1.50;;;21.70;85.60;;;;;;6126581;29;19926;-77
2023/05/06 12:18:30;;;;;;;2.65;1.00;;;21.90;87.00;;;;;;6136989;29;20095;-79
2023/05/06 12:21:32;;;;;;;3.53;1.20;;;22.20;87.30;;;;;;6129897;29;20058;-80
2023/05/06 12:24:34;;;;;;;2.80;1.20;;;22.50;86.40;;;;;;6137154;29;20059;-76
2023/05/06 12:27:36;;;;;;;2.92;1.10;;;22.60;81.40;;;;;;6127797;29;20052;-78
2023/05/06 12:30:38;;;;;;;2.92;1.08;;;22.20;86.30;;;;;;6126035;29;20059;-78
2023/05/06 12:33:49;;;;;;;2.55;0.90;;;22.20;83.90;;;;;;6126851;29;20058;-79
2023/05/06 12:36:51;;;;;;;5.30;1.10;;;22.60;84.10;;;;;;6124379;29;20059;-77
2023/05/06 12:39:52;;;;;;;2.70;1.00;;;22.60;83.00;;;;;;6126615;29;20062;-77
2023/05/06 12:42:55;;;;;;;3.65;1.00;;;22.70;82.20;;;;;;6126924;29;20063;-78
2023/05/06 12:46:05;;;;;;;4.22;1.20;;;22.70;79.40;;;;;;6125392;29;20074;-77
2023/05/06 12:49:08;;;;;;;2.30;1.00;;;22.90;78.40;;;;;;6108985;29;20052;-78
2023/05/06 12:52:10;;;;;;;;;;;23.10;76.20;;;;;;6121958;29;20054;-79
2023/05/06 12:55:12;;;;;;;2.17;0.90;;;23.60;77.30;;;;;;6124358;29;19929;-76
2023/05/06 12:58:18;;;;;;;3.58;1.00;;;23.70;75.90;;;;;;6124180;29;20055;-79
2023/05/06 13:01:21;;;;;;;2.38;1.00;;;23.70;77.70;;;;;;6124874;29;20143;-76
2023/05/06 13:04:25;;;;;;;2.50;1.00;;;23.60;73.00;;;;;;6124129;29;20106;-76
2023/05/06 13:07:27;;;;;;;3.35;1.00;;;23.80;70.40;;;;;;6125111;29;20051;-79
2023/05/06 13:10:29;;;;;;;3.40;1.20;;;23.80;68.60;;;;;;6125727;29;20486;-76
2023/05/06 13:13:31;;;;;;;3.35;1.20;;;24.10;69.80;;;;;;6126219;29;20047;-79
2023/05/06 13:16:34;;;;;;;2.97;1.13;;;24.30;71.10;;;;;;6124998;29;20056;-78
2023/05/06 13:19:37;;;;;;;5.57;1.30;;;24.30;70.90;;;;;;6125718;29;20048;-78
2023/05/06 13:22:39;;;;;;;3.13;1.08;;;24.40;69.20;;;;;;6126189;29;20054;-77
2023/05/06 13:25:41;;;;;;;2.50;1.02;;;24.50;68.70;;;;;;6125391;29;20071;-77
2023/05/06 13:28:42;;;;;;;3.47;1.15;;;24.60;70.90;;;;;;6111872;29;20060;-79
2023/05/06 13:31:44;;;;;;;4.63;1.00;;;25.00;66.70;;;;;;6128559;29;20059;-76
2023/05/06 13:34:48;;;;;;;4.53;1.30;;;25.10;69.70;;;;;;6132099;29;20560;-76
2023/05/06 13:37:50;;;;;;;2.78;1.17;;;24.90;69.30;;;;;;6121828;29;20298;-77
2023/05/06 13:40:53;;;;;;;3.58;1.30;;;24.80;68.10;;;;;;6126590;29;20047;-78
2023/05/06 13:43:55;;;;;;;3.50;1.00;;;24.90;67.60;;;;;;6124905;29;20137;-78
2023/05/06 13:46:57;;;;;;;3.67;0.90;;;25.20;65.10;;;;;;6117617;29;20052;-77
2023/05/06 13:50:02;;;;;;;2.75;1.10;;;24.80;66.40;;;;;;6123920;29;20055;-78
2023/05/06 13:53:04;;;;;;;3.30;1.02;;;25.20;66.20;;;;;;6124728;29;20055;-78
2023/05/06 13:56:07;;;;;;;2.57;1.00;;;25.50;63.00;;;;;;6124209;29;20055;-76
2023/05/06 13:59:10;;;;;;;2.95;1.00;;;26.10;66.50;;;;;;6123709;29;20051;-77
2023/05/06 14:02:12;;;;;;;2.42;1.02;;;26.50;65.40;;;;;;6122794;29;20051;-76
2023/05/06 14:05:15;;;;;;;2.55;1.05;;;25.90;63.60;;;;;;6124026;29;20098;-77
2023/05/06 14:08:17;;;;;;;3.10;1.10;;;26.10;63.70;;;;;;6122519;29;20059;-78
2023/05/06 14:11:19;;;;;;;3.33;1.00;;;26.10;62.60;;;;;;6124385;29;20055;-76
2023/05/06 14:14:21;;;;;;;2.60;0.93;;;26.30;62.70;;;;;;6122499;29;20139;-79
2023/05/06 14:17:23;;;;;;;2.97;0.98;;;26.70;61.40;;;;;;6122795;29;20477;-77
2023/05/06 14:20:26;;;;;;;2.70;0.90;;;27.00;59.00;;;;;;6133381;29;20421;-77
2023/05/06 14:23:28;;;;;;;3.88;1.20;;;27.30;60.50;;;;;;6124857;29;20083;-77
2023/05/06 14:26:30;;;;;;;4.07;1.50;;;27.20;59.70;;;;;;6120456;29;20048;-78
2023/05/06 14:29:32;;;;;;;3.35;1.10;;;26.90;61.50;;;;;;6121571;29;20719;-78
2023/05/06 14:32:34;;;;;;;3.28;0.90;;;27.20;59.50;;;;;;6125372;29;20055;-78
2023/05/06 14:35:40;;;;;;;2.17;0.80;;;27.20;59.40;;;;;;6122829;29;20055;-77
2023/05/06 14:38:42;;;;;;;3.10;0.98;;;27.50;59.30;;;;;;6124645;29;20059;-77
2023/05/06 14:41:44;;;;;;;5.22;1.13;;;27.80;57.30;;;;;;6123744;29;20572;-76
2023/05/06 14:44:49;;;;;;;2.00;0.80;;;28.00;56.70;;;;;;6124071;29;20074;-76
2023/05/06 14:47:51;;;;;;;3.20;0.80;;;28.00;56.00;;;;;;6107390;29;20088;-77
2023/05/06 14:50:54;;;;;;;3.67;1.20;;;27.80;54.50;;;;;;6104026;29;20052;-76
2023/05/06 14:53:56;;;;;;;4.57;1.10;;;27.30;57.50;;;;;;6125450;29;20051;-77
2023/05/06 14:57:00;;;;;;;2.47;1.00;;;27.50;58.00;;;;;;6129013;29;20051;-76
2023/05/06 15:00:04;;;;;;;2.78;0.90;;;27.50;55.60;;;;;;6129533;29;20505;-77
2023/05/06 15:03:05;;;;;;;2.38;1.00;;;27.80;56.10;;;;;;6126616;29;20062;-78
2023/05/06 15:06:09;;;;;;;2.05;0.93;;;28.00;55.30;;;;;;6126529;29;20064;-77
2023/05/06 15:09:11;;;;;;;3.13;1.00;;;27.50;57.90;;;;;;6127029;29;20055;-78
2023/05/06 15:12:12;;;;;;;2.37;0.80;;;27.60;57.00;;;;;;6127909;29;20043;-76
2023/05/06 15:15:14;;;;;;;2.80;0.90;;;28.40;56.80;;;;;;6126318;29;20062;-75
2023/05/06 15:18:16;;;;;;;2.55;0.90;;;28.10;54.10;;;;;;6122959;29;20048;-76
2023/05/06 15:21:19;;;;;;;2.37;0.90;;;28.60;54.90;;;;;;6119437;29;20051;-78
2023/05/06 15:24:22;;;;;;;2.53;0.93;;;29.30;53.10;;;;;;6120048;29;20070;-77
2023/05/06 15:27:24;;;;;;;3.47;1.08;;;30.20;50.90;;;;;;6121673;29;20043;-78
2023/05/06 15:30:26;;;;;;;4.05;1.00;;;30.40;49.40;;;;;;6126147;29;20051;-78
2023/05/06 15:33:28;;;;;;;4.25;1.13;;;30.90;49.70;;;;;;6128452;29;20059;-77
2023/05/06 15:36:31;;;;;;;3.00;0.95;;;30.80;49.80;;;;;;6115136;29;20811;-74
2023/05/06 15:39:36;;;;;;;2.95;0.98;;;31.20;48.60;;;;;;6112157;29;20044;-76
2023/05/06 15:42:39;;;;;;;2.33;1.02;;;30.00;50.10;;;;;;6145422;29;20053;-77
2023/05/06 15:45:41;;;;;;;2.50;0.80;;;30.10;51.00;;;;;;6130786;29;20063;-77
2023/05/06 15:48:43;;;;;;;3.93;0.90;;;30.10;51.50;;;;;;6121079;29;20044;-78
2023/05/06 15:51:46;;;;;;;3.13;1.10;;;29.50;53.10;;;;;;6122939;29;20308;-76
2023/05/06 15:54:48;;;;;;;2.08;1.05;;;29.40;51.80;;;;;;6126701;29;20739;-79
2023/05/06 15:57:52;;;;;;;3.13;1.00;;;29.10;51.10;;;;;;6128136;29;20052;-76
2023/05/06 16:00:54;;;;;;;2.78;1.15;;;28.80;53.70;;;;;;6125883;29;20062;-78
2023/05/06 16:03:56;;;;;;;2.00;0.80;;;28.80;53.80;;;;;;6128783;29;20059;-78
2023/05/06 16:06:59;;;;;;;3.40;1.15;;;28.90;53.50;;;;;;6139660;29;20043;-78
2023/05/06 16:10:02;;;;;;;2.55;1.10;;;28.40;52.30;;;;;;6131823;29;20051;-76
2023/05/06 16:13:04;;;;;;;1.77;0.77;;;28.30;53.20;;;;;;6129104;29;20062;-78
2023/05/06 16:16:06;;;;;;;3.07;0.90;;;27.70;53.20;;;;;;6128532;29;20493;-78
2023/05/06 16:19:09;;;;;;;2.70;1.00;;;27.70;55.20;;;;;;6124796;29;20060;-78
2023/05/06 16:22:13;;;;;;;2.80;0.90;;;27.90;53.60;;;;;;6126705;29;20047;-78
2023/05/06 16:25:15;;;;;;;4.13;0.90;;;27.10;55.40;;;;;;6124867;29;20059;-78
2023/05/06 16:28:17;;;;;;;3.47;1.20;;;27.20;54.40;;;;;;6126201;29;20618;-76
2023/05/06 16:31:19;;;;;;;4.47;0.93;;;27.10;54.40;;;;;;6126294;29;20670;-78
2023/05/06 16:34:20;;;;;;;2.70;1.20;;;26.80;55.50;;;;;;6118307;29;20048;-77
2023/05/06 16:37:24;;;;;;;2.65;1.23;;;26.60;55.50;;;;;;6107876;29;20416;-78
2023/05/06 16:40:26;;;;;;;4.05;1.10;;;26.40;54.90;;;;;;6121868;29;20150;-77
2023/05/06 16:43:28;;;;;;;2.70;1.17;;;26.10;58.00;;;;;;6126504;29;20131;-78
2023/05/06 16:46:31;;;;;;;2.58;0.98;;;25.80;57.00;;;;;;6126159;29;20062;-77
2023/05/06 16:49:33;;;;;;;3.60;1.05;;;25.30;58.60;;;;;;6119227;29;20050;-76
2023/05/06 16:52:37;;;;;;;4.47;1.10;;;25.40;57.70;;;;;;6116820;29;20059;-78
2023/05/06 16:55:38;;;;;;;4.22;2.30;;;24.90;58.90;;;;;;6123475;29;20052;-74
2023/05/06 16:58:41;;;;;;;3.85;1.98;;;24.90;60.50;;;;;;6125867;29;20047;-74
2023/05/06 17:01:43;;;;;;;2.70;1.30;;;24.80;60.90;;;;;;6123791;29;20107;-73
2023/05/06 17:04:44;;;;;;;4.35;1.83;;;25.10;60.60;;;;;;6124590;29;20063;-74
2023/05/06 17:07:48;;;;;;;4.57;2.00;;;24.90;59.80;;;;;;6124255;29;20513;-74
2023/05/06 17:10:50;;;;;;;4.20;1.55;;;24.70;61.60;;;;;;6122071;29;20058;-73
2023/05/06 17:13:52;;;;;;;5.55;2.00;;;24.70;61.20;;;;;;6125529;29;20055;-72
2023/05/06 17:16:54;;;;;;;4.10;1.40;;;24.50;63.50;;;;;;6125338;29;20051;-73
2023/05/06 17:19:58;;;;;;;3.65;1.70;;;24.30;62.50;;;;;;6110188;29;20055;-73
2023/05/06 17:23:01;;;;;;;;;;;24.30;63.60;;;;;;6116674;29;20414;-73
2023/05/06 17:26:03;;;;;;;4.10;1.55;;;24.20;64.00;;;;;;6124220;29;19929;-71
2023/05/06 17:29:05;;;;;;;4.65;1.60;;;24.00;64.20;;;;;;6124566;29;20417;-72
2023/05/06 17:32:06;;;;;;;4.32;1.63;;;24.10;65.30;;;;;;6117687;29;20060;-80
2023/05/06 17:35:09;;;;;;;4.05;1.50;;;24.10;66.50;;;;;;6123397;29;20413;-78
2023/05/06 17:38:15;;;;;;;5.28;1.45;;;23.50;64.70;;;;;;6121338;29;20043;-78
2023/05/06 17:41:17;;;;;;;3.92;1.40;;;23.30;67.70;;;;;;6126234;29;20052;-78
2023/05/06 17:44:19;;;;;;;3.63;1.33;;;23.10;67.00;;;;;;6119285;29;20142;-74
2023/05/06 17:47:21;;;;;;;3.80;1.17;;;23.30;68.10;;;;;;6124163;29;20055;-71
2023/05/06 17:50:23;;;;;;;4.77;1.57;;;23.30;68.00;;;;;;6124433;29;20052;-72
2023/05/06 17:53:27;;;;;;;8.85;2.20;;;23.40;68.70;;;;;;6124017;29;20134;-71
2023/05/06 17:56:31;;;;;;;4.47;1.38;;;23.50;69.70;;;;;;6124687;29;20059;-72
2023/05/06 17:59:33;;;;;;;4.22;1.48;;;23.50;70.30;;;;;;6124809;29;20054;-75
2023/05/06 18:02:36;;;;;;;5.63;1.35;;;23.50;70.10;;;;;;6119654;29;20058;-75
2023/05/06 18:05:37;;;;;;;4.32;1.50;;;23.30;70.50;;;;;;6124578;29;20062;-74
2023/05/06 18:08:41;;;;;;;4.78;1.40;;;23.10;70.50;;;;;;6123710;29;20050;-74
2023/05/06 18:11:43;;;;;;;;;;;23.10;70.00;;;;;;6123412;29;20055;-74
2023/05/06 18:14:45;;;;;;;4.03;1.70;;;23.00;70.50;;;;;;6121542;29;19923;-76
2023/05/06 18:17:47;;;;;;;4.47;1.60;;;22.90;70.60;;;;;;6122616;29;20051;-75
2023/05/06 18:20:49;;;;;;;2.95;1.27;;;22.80;70.00;;;;;;6124093;29;20066;-75
2023/05/06 18:23:52;;;;;;;5.65;1.40;;;22.70;70.70;;;;;;6122180;29;20058;-75
2023/05/06 18:26:54;;;;;;;;;;;22.60;71.30;;;;;;6121885;28;20054;-75
2023/05/06 18:29:58;;;;;;;5.50;1.50;;;22.50;72.10;;;;;;6116694;29;20307;-75
2023/05/06 18:33:00;;;;;;;3.35;1.30;;;22.40;73.00;;;;;;6129048;29;20040;-75
2023/05/06 18:36:01;;;;;;;3.08;1.30;;;22.30;72.90;;;;;;6116733;29;20557;-75
2023/05/06 18:39:05;;;;;;;4.25;1.33;;;22.20;72.60;;;;;;6123055;29;20125;-76
2023/05/06 18:42:07;;;;;;;2.70;1.20;;;22.10;73.70;;;;;;6123218;29;20062;-75
2023/05/06 18:45:10;;;;;;;3.33;1.40;;;22.00;74.40;;;;;;6104195;29;20052;-74
2023/05/06 18:48:12;;;;;;;2.95;1.25;;;21.90;74.10;;;;;;6116901;29;20052;-75
2023/05/06 18:51:16;;;;;;;3.47;1.20;;;21.80;74.00;;;;;;6118877;29;20052;-78
2023/05/06 18:54:20;;;;;;;2.47;1.15;;;21.70;75.30;;;;;;6122386;29;20783;-79
2023/05/06 18:57:22;;;;;;;5.47;1.30;;;21.60;75.80;;;;;;6102129;29;20056;-76
2023/05/06 19:00:27;;;;;;;3.38;1.40;;;21.60;76.10;;;;;;6107027;29;20063;-76
2023/05/06 19:03:30;;;;;;;3.60;1.50;;;21.40;76.80;;;;;;6108291;29;20095;-78
2023/05/06 19:06:32;;;;;;;4.10;1.40;;;21.30;77.30;;;;;;6127004;29;20171;-75
2023/05/06 19:09:39;;;;;;;4.88;1.50;;;21.30;78.70;;;;;;6116026;29;20318;-78
2023/05/06 19:12:41;;;;;;;5.30;1.85;;;21.10;79.00;;;;;;6108334;29;20494;-76
2023/05/06 19:15:43;;;;;;;5.15;1.50;;;21.10;80.00;;;;;;6119831;29;20052;-76
2023/05/06 19:18:46;;;;;;;3.40;1.50;;;21.00;79.70;;;;;;6113344;29;20055;-76
2023/05/06 19:21:48;;;;;;;4.65;1.38;;;20.90;79.30;;;;;;6099954;29;20120;-75
2023/05/06 19:24:51;;;;;;;3.67;1.70;;;20.80;79.60;;;;;;6118903;29;20074;-74
2023/05/06 19:27:53;;;;;;;3.53;1.60;;;20.80;79.00;;;;;;6114554;29;20052;-76
2023/05/06 19:30:55;;;;;;;3.30;1.50;;;20.80;80.50;;;;;;6106129;29;20060;-78
2023/05/06 19:33:57;;;;;;;5.18;2.03;;;20.80;79.70;;;;;;6112473;29;20054;-73
2023/05/06 19:36:59;;;;;;;4.80;1.80;;;20.70;81.50;;;;;;6120732;29;20048;-78
2023/05/06 19:40:03;;;;;;;4.13;1.67;;;20.60;83.00;;;;;;6126920;29;20051;-77
2023/05/06 19:43:05;;;;;;;5.32;1.90;;;20.60;83.70;;;;;;6117399;28;20060;-75
2023/05/06 19:46:08;;;;;;;5.00;2.40;;;20.50;83.20;;;;;;6103803;29;20052;-77
2023/05/06 19:49:09;;;;;;;5.70;2.15;;;20.50;84.40;;;;;;6100912;29;20092;-76
2023/05/06 19:52:12;;;;;;;7.70;2.40;;;20.50;85.30;;;;;;6102707;29;20051;-75
2023/05/06 19:55:15;;;;;;;5.00;2.58;;;20.30;85.60;;;;;;6114380;29;20052;-77
2023/05/06 19:58:17;;;;;;;;;;;20.20;85.60;;;;;;6123607;29;20146;-76
2023/05/06 20:01:22;;;;;;;4.30;2.40;;;20.20;86.60;;;;;;6121998;29;19927;-76
2023/05/06 20:04:24;;;;;;;5.80;2.85;;;20.20;87.20;;;;;;6113537;29;20048;-75
2023/05/06 20:07:26;;;;;;;6.38;2.95;;;20.10;88.70;;;;;;6101789;29;20056;-76
2023/05/06 20:10:30;;;;;;;8.70;3.40;;;20.00;90.40;;;;;;6117929;29;20414;-75
2023/05/06 20:13:32;;;;;;;7.03;3.40;;;19.90;91.20;;;;;;6110597;29;20497;-75
2023/05/06 20:16:34;;;;;;;8.15;3.50;;;19.80;91.50;;;;;;6122278;29;20044;-75